createdAt,value
2023-04-11T00:01:00.905Z,100
2023-04-11T00:11:00.463Z,100
2023-04-11T00:21:00.489Z,100
2023-04-11T00:31:00.479Z,100
2023-04-11T00:41:00.477Z,100
2023-04-11T00:51:00.444Z,100
2023-04-11T01:01:00.453Z,100
2023-04-11T01:11:00.473Z,100
2023-04-11T01:21:00.514Z,100
2023-04-11T01:31:00.585Z,100
2023-04-11T01:41:00.465Z,100
2023-04-11T01:51:00.522Z,100
2023-04-11T02:01:00.611Z,100
2023-04-11T02:11:00.486Z,100
2023-04-11T02:21:00.510Z,100
2023-04-11T02:31:00.700Z,100
2023-04-11T02:41:00.554Z,100
2023-04-11T02:51:00.579Z,100
2023-04-11T03:01:00.531Z,100
2023-04-11T03:11:00.565Z,100
2023-04-11T03:21:00.519Z,100
2023-04-11T03:31:00.558Z,100
2023-04-11T03:41:00.542Z,100
2023-04-11T03:51:00.586Z,100
2023-04-11T04:01:00.523Z,100
2023-04-11T04:11:00.556Z,100
2023-04-11T04:21:00.581Z,100
2023-04-11T04:31:00.547Z,100
2023-04-11T04:41:00.581Z,100
2023-04-11T04:51:00.549Z,100
2023-04-11T05:01:00.599Z,100
2023-04-11T05:11:00.617Z,100
2023-04-11T05:21:00.583Z,100
2023-04-11T05:31:00.607Z,100
2023-04-11T05:41:00.580Z,100
2023-04-11T05:51:00.544Z,100
2023-04-11T06:01:00.572Z,100
2023-04-11T06:11:00.531Z,100
2023-04-11T06:21:00.570Z,100
2023-04-11T06:31:00.563Z,100
2023-04-11T06:41:00.572Z,100
2023-04-11T06:51:00.523Z,100
2023-04-11T07:01:00.611Z,100
2023-04-11T07:21:09.241Z,100
2023-04-11T07:31:00.521Z,100
2023-04-11T07:41:00.513Z,99
2023-04-11T07:51:00.616Z,100
2023-04-11T08:01:00.571Z,94
2023-04-11T08:11:00.584Z,96
2023-04-11T08:21:00.629Z,92
2023-04-11T08:31:00.537Z,100
2023-04-11T08:41:00.545Z,99
2023-04-11T08:51:00.529Z,95
2023-04-11T09:11:00.472Z,95
2023-04-11T09:21:00.596Z,87
2023-04-11T09:31:00.593Z,82
2023-04-11T09:41:00.536Z,80
2023-04-11T09:51:00.484Z,75
2023-04-11T10:01:01.537Z,74
2023-04-11T10:11:00.440Z,71
2023-04-11T10:21:00.456Z,66
2023-04-11T10:31:00.537Z,65
2023-04-11T10:41:00.532Z,68
2023-04-11T10:51:00.465Z,61
2023-04-11T11:01:00.547Z,62
2023-04-11T11:11:00.429Z,59
2023-04-11T11:21:00.423Z,59
2023-04-11T11:31:00.416Z,60
2023-04-11T11:41:00.414Z,52
2023-04-11T12:01:00.395Z,56
2023-04-11T12:11:00.398Z,53
2023-04-11T12:21:00.395Z,54
2023-04-11T12:31:00.399Z,54
2023-04-11T12:41:20.225Z,50
2023-04-11T12:51:00.360Z,50
2023-04-11T13:01:00.566Z,47
2023-04-11T13:11:00.343Z,47
2023-04-11T13:21:00.325Z,46
2023-04-11T13:31:00.475Z,47
2023-04-11T13:41:00.319Z,47
2023-04-11T13:51:00.306Z,46
2023-04-11T14:01:00.323Z,50
2023-04-11T14:11:00.261Z,51
2023-04-11T14:21:00.296Z,49
2023-04-11T14:31:00.407Z,49
2023-04-11T14:41:00.268Z,48
2023-04-11T14:51:00.240Z,48
2023-04-11T15:01:00.235Z,48
2023-04-11T15:11:00.233Z,49
2023-04-11T15:21:00.224Z,49
2023-04-11T15:31:00.310Z,48
2023-04-11T15:41:00.219Z,49
2023-04-11T15:51:00.245Z,50
2023-04-11T16:01:00.180Z,50
2023-04-11T16:11:00.283Z,53
2023-04-11T16:21:00.190Z,55
2023-04-11T16:31:00.169Z,56
2023-04-11T16:41:00.191Z,57
2023-04-11T16:51:00.169Z,58
2023-04-11T17:01:00.206Z,59
2023-04-11T17:11:00.142Z,60
2023-04-11T17:21:00.380Z,60
2023-04-11T17:31:00.221Z,59
2023-04-11T17:41:06.908Z,60
2023-04-11T17:51:00.134Z,63
2023-04-11T18:01:00.115Z,65
2023-04-11T18:11:00.184Z,66
2023-04-11T18:21:00.120Z,65
2023-04-11T18:31:00.157Z,64
2023-04-11T18:41:02.407Z,67
2023-04-11T18:51:00.124Z,66
2023-04-11T19:01:03.636Z,65
2023-04-11T19:11:00.099Z,64
2023-04-11T19:21:00.070Z,64
2023-04-11T19:31:00.189Z,70
2023-04-11T19:41:00.086Z,74
2023-04-11T19:51:01.111Z,77
2023-04-11T20:01:00.064Z,80
2023-04-11T20:11:00.164Z,86
2023-04-11T20:21:00.120Z,94
2023-04-11T20:31:00.047Z,98
2023-04-11T20:41:00.046Z,100
2023-04-11T20:51:00.046Z,100
2023-04-11T21:01:00.084Z,100
2023-04-11T21:11:00.070Z,100
2023-04-11T21:21:00.097Z,100
2023-04-11T21:31:00.052Z,100
2023-04-11T21:41:00.047Z,100
2023-04-11T21:51:00.060Z,100
2023-04-11T22:01:00.058Z,100
2023-04-11T22:11:00.055Z,100
2023-04-11T22:21:00.041Z,100
2023-04-11T22:31:00.036Z,100
2023-04-11T22:41:00.046Z,100
2023-04-11T22:51:00.013Z,100
2023-04-11T23:01:00.091Z,100
2023-04-11T23:11:00.122Z,100
2023-04-11T23:21:00.046Z,100
2023-04-11T23:31:00.046Z,100
2023-04-11T23:41:00.019Z,100
2023-04-11T23:51:00.037Z,100
